Terminal Aerodrome Forecast
Issued by NWS

Home | Current Version | Previous Version | Text Only | Print | Product List | Glossary On
Versions: 1 2 3 4 5 6 7 8 9 10 11 12 13 14 15 16
000
FTAK31 PAJN 281100
TAFASI
TAF
PASI 281133Z 2812/2912 34007KT P6SM SCT026 OVC050
      TEMPO 2812/2816 OVC026
     FM281600 30011KT P6SM SCT040 BKN100
     FM282100 30011KT P6SM SCT060 SCT080
     FM290300 30004KT P6SM SCT015
     FM290800 32004KT P6SM FEW007 SCT015=

USA.gov is the U.S. government's official web portal to all federal, state and local government web resources and services.